• Join FlightAware (Why Join?)
  • Login
  • US Flag 
05:59PM EDT


 

Airport Tracker/Info


-or-


 

Live Flight TrackerFlight Track Log ✈ ASQ6118 ✈ 21-Jul-2013 ✈ KCLT - KIAD

Flight Track Log - Related Links

Times and Time Zones

All times are in EDT time to prevent confusion due to time zone crossing. See the ASQ6118 flight status page for this flight to view local times or setup timezone preferences in your user account.

Time Position Orientation Groundspeed Altitude Reporting Facility
EDT Latitude Longitude Course Direction KTS MPH feet Rate Location/Type
05:26PM 35.1661 -80.9519 266° West 177 204 2,700  Level Atlanta Center
05:27PM 35.1103 -80.9667 192° South 257 296 3,900 1,620 Climbing Atlanta Center
05:28PM 35.0931 -81.0333 252° West 256 295 5,800 2,040 Climbing Atlanta Center
05:29PM 35.1945 -81.3778 239° Southwest  Level FlightAware Approximate
05:29PM 35.0953 -81.1244 272° West 274 315 7,900  Level Atlanta Center
05:30PM 35.1333 -81.5062 270° West  Level FlightAware Approximate
05:30PM 35.1264 -81.2097 294° West 285 328 8,800  Level Atlanta Center
05:31PM 35.1324 -81.6555 259° West  Level FlightAware Approximate
05:31PM 35.1350 -81.3061 276° West 280 322 10,700  Level Atlanta Center
05:32PM 35.1134 -81.8027 266° West  Level FlightAware Approximate
05:32PM 35.1558 -81.4044 285° West 296 341 11,800  Level Atlanta Center
05:33PM 35.2428 -81.4678 329° Northwest 301 346 13,300 1,320 Climbing Atlanta Center
05:34PM 35.2847 -81.5758 295° West 325 374 14,500 1,320 Climbing Atlanta Center
05:35PM 35.3306 -81.6789 299° West 341 392 16,000 1,380 Climbing Atlanta Center
05:36PM 35.4250 -81.7067 347° North 321 369 17,300 1,260 Climbing Atlanta Center
05:37PM 35.5250 -81.7089 359° North 346 398 18,600 1,200 Climbing Atlanta Center
05:38PM 35.6272 -81.7111 359° North 358 412 19,700 960 Climbing Atlanta Center
05:39PM 35.7211 -81.7111 360° North 364 419 20,600 900 Climbing Atlanta Center
05:40PM 35.8214 -81.7158 358° North 369 425 21,500 780 Climbing Atlanta Center
05:41PM 35.9236 -81.7156 360° North 363 418 22,200 660 Climbing Atlanta Center
05:42PM 36.0258 -81.7178 359° North 369 425 22,900 600 Climbing Atlanta Center
05:43PM 36.1364 -81.7197 359° North 363 418 23,500 600 Climbing Atlanta Center
05:44PM 36.2367 -81.7219 359° North 363 418 24,200 660 Climbing Atlanta Center
05:45PM 36.3431 -81.7242 359° North 368 423 24,900 480 Climbing Atlanta Center
05:46PM 36.4578 -81.7258 359° North 395 455 25,200 600 Climbing Atlanta Center
05:47PM 36.5706 -81.7306 358° North 400 460 26,200 900 Climbing Atlanta Center
05:48PM 36.6853 -81.7297 360° North 405 466 27,000 660 Climbing Atlanta Center
05:50PM 36.9211 -81.7364 359° North 431 496 28,200 660 Climbing Indianapolis Center
05:51PM 37.0394 -81.7386 359° North 427 491 29,000 360 Climbing Indianapolis Center
05:52PM 37.1608 -81.7419 359° North 437 503 29,000  Level Indianapolis Center
05:53PM 37.2836 -81.7442 359° North 441 507 29,000  Level Indianapolis Center
05:54PM 37.4161 -81.7489 358° North 464 534 29,000  Level Indianapolis Center
05:55PM 37.5669 -81.7519 359° North 466 536 29,000  Level Indianapolis Center
05:56PM 37.6961 -81.7553 359° North 465 535 29,000  Level Indianapolis Center
05:57PM 37.8242 -81.7578 359° North 460 529 29,000  Level Indianapolis Center
05:58PM 37.9594 -81.7606 359° North 468 539 29,000  Level Indianapolis Center
05:59PM 38.0894 -81.7633 359° North 468 539 29,000  Level Indianapolis Center
06:01PM 38.2181 -81.7467 North 466 536 29,000  Level Indianapolis Center
06:02PM 38.3181 -81.6342 41° Northeast 490 564 29,000  Level Indianapolis Center
06:03PM 38.3389 -81.4322 82° East 489 563 29,000  Level Indianapolis Center
06:04PM 38.3333 -81.2603 92° East 490 564 29,000  Level Indianapolis Center
06:05PM 38.3269 -81.0875 93° East 492 566 29,000  Level Indianapolis Center
06:06PM 38.3200 -80.9156 93° East 490 564 29,000  Level Indianapolis Center
06:07PM 38.3144 -80.7414 92° East 493 567 29,000  Level Indianapolis Center
06:08PM 38.3081 -80.5672 93° East 495 570 29,000  Level Indianapolis Center
06:09PM 38.3222 -80.3617 85° East 490 564 29,000  Level Indianapolis Center
06:10PM 38.3506 -80.2278 75° East 498 573 29,000  Level Washington Center
06:11PM 38.3911 -80.0394 75° East 498 573 29,000 -240 Level Washington Center
06:12PM 38.4244 -79.8719 76° East 498 573 28,600 -1,320 Descending Washington Center
06:13PM 38.4594 -79.7042 75° East 498 573 26,400 -2,280 Descending Washington Center
06:14PM 38.4922 -79.5361 76° East 488 562 24,100 -1,380 Descending Washington Center
06:15PM 38.5242 -79.3867 75° East 462 532 23,700 -1,200 Descending Washington Center
06:16PM 38.5511 -79.2528 76° East 438 504 21,800 -1,680 Descending Washington Center
06:17PM 38.5764 -79.1053 78° East 427 491 20,400 -1,440 Descending Washington Center
06:18PM 38.6014 -78.9628 77° East 422 486 18,900 -1,440 Descending Washington Center
06:19PM 38.6261 -78.8206 77° East 416 479 17,500 -1,500 Descending Washington Center
06:20PM 38.6567 -78.6917 73° East 394 453 16,000 -1,740 Descending Washington Center
06:21PM 38.6869 -78.5625 73° East 383 441 14,100 -1,980 Descending Washington Center
06:22PM 38.7169 -78.4414 72° East 365 420 12,100 -1,620 Descending Washington Center
06:23PM 38.7525 -78.3469 64° Northeast 342 394 11,000 -1,020 Descending Washington Center
06:24PM 38.8200 -78.3147 20° North 270 311 10,100 -1,440 Descending Washington Center
06:25PM 38.8853 -78.2825 21° North 252 290 8,100 -1,860 Descending Washington Center
06:26PM 38.9486 -78.2528 20° North 246 283 6,400 -1,080 Descending Washington Center
06:27PM 39.0017 -78.2092 33° Northeast 230 265 6,000 -240 Descending Washington Center
06:28PM 38.9950 -78.1261 96° East 191 220 6,000  Level Washington Center
06:29PM 38.9886 -78.0433 96° East 206 237 6,000  Level Washington Center
06:30PM 38.9819 -77.9603 96° East 218 251 6,000  Level Washington Center
06:32PM 38.9667 -77.7667 96° East 239 275 6,000  Level Potomac TRACON
06:33PM 38.9667 -77.6833 90° East 240 276 6,000  Level Potomac TRACON
06:34PM 38.9333 -77.6167 123° Southeast 243 280 6,000  Level Potomac TRACON
06:35PM 38.8667 -77.5833 159° South 229 264 6,000 -480 Level Potomac TRACON
06:36PM 38.8167 -77.5667 165° South 227 261 5,100 -1,080 Descending Potomac TRACON
06:37PM 38.7833 -77.4833 117° Southeast 235 270 4,000 -1,140 Descending Potomac TRACON